sensor_id;sensor_type;location;lat;lon;timestamp;pressure;altitude;pressure_sealevel;temperature;humidity
48200;BME280;33990;44.602;10.976;2024-01-11T00:01:47;102186.81;;;18.74;40.95
48200;BME280;33990;44.602;10.976;2024-01-11T00:04:14;102198.50;;;18.73;40.75
48200;BME280;33990;44.602;10.976;2024-01-11T00:06:45;102194.88;;;18.74;40.85
48200;BME280;33990;44.602;10.976;2024-01-11T00:09:15;102188.81;;;18.71;40.87
48200;BME280;33990;44.602;10.976;2024-01-11T00:11:42;102188.75;;;18.72;40.75
48200;BME280;33990;44.602;10.976;2024-01-11T00:14:09;102187.88;;;18.72;40.75
48200;BME280;33990;44.602;10.976;2024-01-11T00:16:37;102180.78;;;18.71;40.83
48200;BME280;33990;44.602;10.976;2024-01-11T00:19:04;102180.78;;;18.71;40.73
48200;BME280;33990;44.602;10.976;2024-01-11T00:21:32;102184.41;;;18.70;40.63
48200;BME280;33990;44.602;10.976;2024-01-11T00:23:59;102180.78;;;18.71;40.59
48200;BME280;33990;44.602;10.976;2024-01-11T00:26:26;102175.47;;;18.69;40.68
48200;BME280;33990;44.602;10.976;2024-01-11T00:28:54;102179.91;;;18.70;40.62
48200;BME280;33990;44.602;10.976;2024-01-11T00:31:21;102180.84;;;18.69;40.55
48200;BME280;33990;44.602;10.976;2024-01-11T00:33:49;102171.88;;;18.70;40.52
48200;BME280;33990;44.602;10.976;2024-01-11T00:36:18;102179.13;;;18.68;40.44
48200;BME280;33990;44.602;10.976;2024-01-11T00:38:47;102183.53;;;18.69;40.46
48200;BME280;33990;44.602;10.976;2024-01-11T00:41:14;102173.75;;;18.68;40.33
48200;BME280;33990;44.602;10.976;2024-01-11T00:43:41;102180.00;;;18.69;40.26
48200;BME280;33990;44.602;10.976;2024-01-11T00:46:09;102177.38;;;18.67;40.23
48200;BME280;33990;44.602;10.976;2024-01-11T00:48:36;102180.06;;;18.67;40.21
48200;BME280;33990;44.602;10.976;2024-01-11T00:51:04;102181.88;;;18.67;40.37
48200;BME280;33990;44.602;10.976;2024-01-11T00:53:32;102180.16;;;18.66;39.99
48200;BME280;33990;44.602;10.976;2024-01-11T00:56:00;102182.00;;;18.65;40.19
48200;BME280;33990;44.602;10.976;2024-01-11T00:58:28;102188.31;;;18.64;40.18
48200;BME280;33990;44.602;10.976;2024-01-11T01:00:55;102179.41;;;18.64;40.10
48200;BME280;33990;44.602;10.976;2024-01-11T01:03:23;102185.63;;;18.64;40.06
48200;BME280;33990;44.602;10.976;2024-01-11T01:05:50;102180.34;;;18.63;40.17
48200;BME280;33990;44.602;10.976;2024-01-11T01:08:17;102183.88;;;18.63;40.18
48200;BME280;33990;44.602;10.976;2024-01-11T01:10:45;102179.50;;;18.62;40.14
48200;BME280;33990;44.602;10.976;2024-01-11T01:13:12;102180.34;;;18.63;40.09
48200;BME280;33990;44.602;10.976;2024-01-11T01:15:39;102182.16;;;18.62;39.91
48200;BME280;33990;44.602;10.976;2024-01-11T01:18:07;102168.75;;;18.62;40.09
48200;BME280;33990;44.602;10.976;2024-01-11T01:20:35;102164.47;;;18.60;40.09
48200;BME280;33990;44.602;10.976;2024-01-11T01:23:02;102166.19;;;18.61;40.18
48200;BME280;33990;44.602;10.976;2024-01-11T01:25:30;102175.19;;;18.60;40.17
48200;BME280;33990;44.602;10.976;2024-01-11T01:27:57;102168.09;;;18.59;40.09
48200;BME280;33990;44.602;10.976;2024-01-11T01:30:27;102182.28;;;18.61;40.28
48200;BME280;33990;44.602;10.976;2024-01-11T01:32:54;102179.66;;;18.59;40.33
48200;BME280;33990;44.602;10.976;2024-01-11T01:35:22;102170.75;;;18.59;40.38
48200;BME280;33990;44.602;10.976;2024-01-11T01:37:49;102169.91;;;18.58;40.25
48200;BME280;33990;44.602;10.976;2024-01-11T01:40:17;102169.91;;;18.58;40.33
48200;BME280;33990;44.602;10.976;2024-01-11T01:42:45;102175.28;;;18.58;40.37
48200;BME280;33990;44.602;10.976;2024-01-11T01:45:12;102173.56;;;18.57;40.33
48200;BME280;33990;44.602;10.976;2024-01-11T01:47:40;102176.13;;;18.59;40.43
48200;BME280;33990;44.602;10.976;2024-01-11T01:50:10;102177.94;;;18.58;40.52
48200;BME280;33990;44.602;10.976;2024-01-11T01:52:40;102170.88;;;18.57;40.42
48200;BME280;33990;44.602;10.976;2024-01-11T01:55:10;102170.88;;;18.57;40.42
48200;BME280;33990;44.602;10.976;2024-01-11T01:57:39;102167.34;;;18.57;40.38
48200;BME280;33990;44.602;10.976;2024-01-11T02:00:10;102173.56;;;18.57;40.51
48200;BME280;33990;44.602;10.976;2024-01-11T02:02:46;102174.53;;;18.56;40.40
48200;BME280;33990;44.602;10.976;2024-01-11T02:05:17;102171.91;;;18.54;40.48
48200;BME280;33990;44.602;10.976;2024-01-11T02:07:45;102172.78;;;18.55;40.46
48200;BME280;33990;44.602;10.976;2024-01-11T02:10:13;102168.38;;;18.54;40.45
48200;BME280;33990;44.602;10.976;2024-01-11T02:12:41;102172.78;;;18.55;40.47
48200;BME280;33990;44.602;10.976;2024-01-11T02:15:08;102174.59;;;18.54;40.57
48200;BME280;33990;44.602;10.976;2024-01-11T02:17:36;102167.50;;;18.53;40.40
48200;BME280;33990;44.602;10.976;2024-01-11T02:20:04;102173.75;;;18.54;40.34
48200;BME280;33990;44.602;10.976;2024-01-11T02:22:34;102177.28;;;18.54;40.46
48200;BME280;33990;44.602;10.976;2024-01-11T02:25:02;102176.41;;;18.54;40.58
48200;BME280;33990;44.602;10.976;2024-01-11T02:27:30;102175.56;;;18.53;40.47
48200;BME280;33990;44.602;10.976;2024-01-11T02:29:58;102169.34;;;18.53;40.51
48200;BME280;33990;44.602;10.976;2024-01-11T02:32:25;102165.78;;;18.52;40.51
48200;BME280;33990;44.602;10.976;2024-01-11T02:34:52;102168.47;;;18.52;40.52
48200;BME280;33990;44.602;10.976;2024-01-11T02:37:20;102169.34;;;18.53;40.58
48200;BME280;33990;44.602;10.976;2024-01-11T02:39:47;102158.63;;;18.53;40.46
48200;BME280;33990;44.602;10.976;2024-01-11T02:42:15;102161.28;;;18.53;40.53
48200;BME280;33990;44.602;10.976;2024-01-11T02:44:42;102143.47;;;18.52;40.62
48200;BME280;33990;44.602;10.976;2024-01-11T02:47:10;102147.88;;;18.53;40.56
48200;BME280;33990;44.602;10.976;2024-01-11T02:49:37;102143.47;;;18.52;40.64
48200;BME280;33990;44.602;10.976;2024-01-11T02:52:05;102137.25;;;18.51;40.53
48200;BME280;33990;44.602;10.976;2024-01-11T02:54:32;102134.56;;;18.51;40.58
48200;BME280;33990;44.602;10.976;2024-01-11T02:56:59;102141.72;;;18.51;40.61
48200;BME280;33990;44.602;10.976;2024-01-11T02:59:27;102137.34;;;18.50;40.62
48200;BME280;33990;44.602;10.976;2024-01-11T03:01:54;102135.50;;;18.50;40.67
48200;BME280;33990;44.602;10.976;2024-01-11T03:04:21;102141.84;;;18.49;40.67
48200;BME280;33990;44.602;10.976;2024-01-11T03:06:49;102132.84;;;18.50;40.87
48200;BME280;33990;44.602;10.976;2024-01-11T03:09:16;102127.56;;;18.49;40.66
48200;BME280;33990;44.602;10.976;2024-01-11T03:11:43;102124.03;;;18.48;40.77
48200;BME280;33990;44.602;10.976;2024-01-11T03:14:11;102121.34;;;18.48;40.75
48200;BME280;33990;44.602;10.976;2024-01-11T03:16:38;102121.44;;;18.47;40.85
48200;BME280;33990;44.602;10.976;2024-01-11T03:19:06;102114.34;;;18.46;40.75
48200;BME280;33990;44.602;10.976;2024-01-11T03:21:34;102116.16;;;18.45;40.89
48200;BME280;33990;44.602;10.976;2024-01-11T03:24:01;102117.03;;;18.46;40.79
48200;BME280;33990;44.602;10.976;2024-01-11T03:26:28;102116.16;;;18.45;40.77
48200;BME280;33990;44.602;10.976;2024-01-11T03:28:56;102111.66;;;18.46;40.82
48200;BME280;33990;44.602;10.976;2024-01-11T03:31:23;102111.66;;;18.46;40.82
48200;BME280;33990;44.602;10.976;2024-01-11T03:33:50;102107.28;;;18.45;40.82
48200;BME280;33990;44.602;10.976;2024-01-11T03:36:18;102109.09;;;18.44;40.86
48200;BME280;33990;44.602;10.976;2024-01-11T03:38:45;102108.13;;;18.45;40.78
48200;BME280;33990;44.602;10.976;2024-01-11T03:41:16;102103.72;;;18.44;40.78
48200;BME280;33990;44.602;10.976;2024-01-11T03:43:44;102102.88;;;18.44;41.04
48200;BME280;33990;44.602;10.976;2024-01-11T03:46:11;102106.50;;;18.43;40.99
48200;BME280;33990;44.602;10.976;2024-01-11T03:48:38;102105.63;;;18.42;40.86
48200;BME280;33990;44.602;10.976;2024-01-11T03:51:06;102106.59;;;18.41;40.90
48200;BME280;33990;44.602;10.976;2024-01-11T03:53:35;102115.50;;;18.42;40.92
48200;BME280;33990;44.602;10.976;2024-01-11T03:56:04;102104.78;;;18.42;41.03
48200;BME280;33990;44.602;10.976;2024-01-11T03:58:32;102102.19;;;18.40;40.95
48200;BME280;33990;44.602;10.976;2024-01-11T04:01:00;102103.91;;;18.41;40.85
48200;BME280;33990;44.602;10.976;2024-01-11T04:03:27;102106.59;;;18.41;40.89
48200;BME280;33990;44.602;10.976;2024-01-11T04:05:54;102104.03;;;18.40;40.90
48200;BME280;33990;44.602;10.976;2024-01-11T04:08:22;102101.34;;;18.40;41.07
48200;BME280;33990;44.602;10.976;2024-01-11T04:10:50;102106.59;;;18.41;41.11
48200;BME280;33990;44.602;10.976;2024-01-11T04:13:17;102101.34;;;18.40;41.03
48200;BME280;33990;44.602;10.976;2024-01-11T04:15:44;102115.69;;;18.39;41.06
48200;BME280;33990;44.602;10.976;2024-01-11T04:18:12;102104.94;;;18.39;41.09
48200;BME280;33990;44.602;10.976;2024-01-11T04:20:39;102097.88;;;18.38;41.04
48200;BME280;33990;44.602;10.976;2024-01-11T04:23:07;102096.06;;;18.38;41.15
48200;BME280;33990;44.602;10.976;2024-01-11T04:25:35;102087.16;;;18.38;41.05
48200;BME280;33990;44.602;10.976;2024-01-11T04:28:02;102090.78;;;18.37;40.99
48200;BME280;33990;44.602;10.976;2024-01-11T04:30:30;102083.72;;;18.36;41.17
48200;BME280;33990;44.602;10.976;2024-01-11T04:32:58;102089.09;;;18.36;41.20
48200;BME280;33990;44.602;10.976;2024-01-11T04:35:26;102089.09;;;18.36;41.07
48200;BME280;33990;44.602;10.976;2024-01-11T04:37:55;102088.22;;;18.35;41.08
48200;BME280;33990;44.602;10.976;2024-01-11T04:40:23;102082.94;;;18.34;41.22
48200;BME280;33990;44.602;10.976;2024-01-11T04:42:51;102074.91;;;18.34;41.14
48200;BME280;33990;44.602;10.976;2024-01-11T04:45:18;102075.75;;;18.34;41.29
48200;BME280;33990;44.602;10.976;2024-01-11T04:47:45;102074.03;;;18.33;41.34
48200;BME280;33990;44.602;10.976;2024-01-11T04:50:13;102073.19;;;18.33;41.30
48200;BME280;33990;44.602;10.976;2024-01-11T04:52:40;102079.41;;;18.33;41.21
48200;BME280;33990;44.602;10.976;2024-01-11T04:55:07;102080.25;;;18.34;41.39
48200;BME280;33990;44.602;10.976;2024-01-11T04:57:35;102074.03;;;18.33;41.23
48200;BME280;33990;44.602;10.976;2024-01-11T05:00:02;102075.84;;;18.33;41.20
48200;BME280;33990;44.602;10.976;2024-01-11T05:02:30;102079.41;;;18.33;41.20
48200;BME280;33990;44.602;10.976;2024-01-11T05:04:57;102080.38;;;18.32;41.28
48200;BME280;33990;44.602;10.976;2024-01-11T05:07:27;102075.00;;;18.32;41.28
48200;BME280;33990;44.602;10.976;2024-01-11T05:09:54;102075.97;;;18.31;41.13
48200;BME280;33990;44.602;10.976;2024-01-11T05:12:21;102075.06;;;18.31;41.23
48200;BME280;33990;44.602;10.976;2024-01-11T05:14:49;102084.94;;;18.30;41.26
48200;BME280;33990;44.602;10.976;2024-01-11T05:17:16;102084.94;;;18.30;41.17
48200;BME280;33990;44.602;10.976;2024-01-11T05:19:43;102079.56;;;18.30;41.34
48200;BME280;33990;44.602;10.976;2024-01-11T05:22:11;102076.91;;;18.30;41.23
48200;BME280;33990;44.602;10.976;2024-01-11T05:24:38;102084.09;;;18.29;41.12
48200;BME280;33990;44.602;10.976;2024-01-11T05:27:06;102072.59;;;18.27;41.22
48200;BME280;33990;44.602;10.976;2024-01-11T05:29:33;102077.97;;;18.27;41.17
48200;BME280;33990;44.602;10.976;2024-01-11T05:32:00;102079.75;;;18.27;41.07
48200;BME280;33990;44.602;10.976;2024-01-11T05:34:28;102079.75;;;18.27;41.09
48200;BME280;33990;44.602;10.976;2024-01-11T05:36:56;102076.22;;;18.26;41.14
48200;BME280;33990;44.602;10.976;2024-01-11T05:39:26;102080.72;;;18.26;41.28
48200;BME280;33990;44.602;10.976;2024-01-11T05:41:53;102078.91;;;18.26;41.28
48200;BME280;33990;44.602;10.976;2024-01-11T05:44:20;102085.13;;;18.27;41.28
48200;BME280;33990;44.602;10.976;2024-01-11T05:46:48;102086.94;;;18.26;41.17
48200;BME280;33990;44.602;10.976;2024-01-11T05:49:15;102088.75;;;18.26;41.36
48200;BME280;33990;44.602;10.976;2024-01-11T05:51:42;102083.41;;;18.26;41.21
48200;BME280;33990;44.602;10.976;2024-01-11T05:54:10;102093.28;;;18.25;41.27
48200;BME280;33990;44.602;10.976;2024-01-11T05:56:37;102095.09;;;18.25;41.43
48200;BME280;33990;44.602;10.976;2024-01-11T05:59:05;102095.94;;;18.25;41.35
48200;BME280;33990;44.602;10.976;2024-01-11T06:01:32;102089.72;;;18.25;41.21
48200;BME280;33990;44.602;10.976;2024-01-11T06:04:00;102095.94;;;18.25;41.37
48200;BME280;33990;44.602;10.976;2024-01-11T06:06:27;102098.63;;;18.25;41.32
48200;BME280;33990;44.602;10.976;2024-01-11T06:08:55;102101.31;;;18.25;41.41
48200;BME280;33990;44.602;10.976;2024-01-11T06:11:24;102085.34;;;18.24;41.47
48200;BME280;33990;44.602;10.976;2024-01-11T06:13:51;102088.88;;;18.24;41.51
48200;BME280;33990;44.602;10.976;2024-01-11T06:16:19;102096.91;;;18.24;41.47
48200;BME280;33990;44.602;10.976;2024-01-11T06:18:46;102102.28;;;18.24;41.43
48200;BME280;33990;44.602;10.976;2024-01-11T06:21:14;102092.41;;;18.25;41.43
48200;BME280;33990;44.602;10.976;2024-01-11T06:23:44;102090.69;;;18.24;41.51
48200;BME280;33990;44.602;10.976;2024-01-11T06:26:12;102085.34;;;18.24;41.42
48200;BME280;33990;44.602;10.976;2024-01-11T06:28:39;102092.53;;;18.23;41.42
48200;BME280;33990;44.602;10.976;2024-01-11T06:31:09;102093.44;;;18.22;41.44
48200;BME280;33990;44.602;10.976;2024-01-11T06:33:37;102084.56;;;18.22;41.24
48200;BME280;33990;44.602;10.976;2024-01-11T06:36:06;102086.25;;;18.23;41.41
48200;BME280;33990;44.602;10.976;2024-01-11T06:38:34;102090.78;;;18.22;41.21
48200;BME280;33990;44.602;10.976;2024-01-11T06:41:02;102084.56;;;18.22;41.38
48200;BME280;33990;44.602;10.976;2024-01-11T06:43:29;102085.50;;;18.21;41.33
48200;BME280;33990;44.602;10.976;2024-01-11T06:46:02;102089.06;;;18.21;41.17
48200;BME280;33990;44.602;10.976;2024-01-11T06:48:30;102087.22;;;18.22;41.09
48200;BME280;33990;44.602;10.976;2024-01-11T06:50:58;102079.28;;;18.20;41.14
48200;BME280;33990;44.602;10.976;2024-01-11T06:53:28;102079.28;;;18.20;41.19
48200;BME280;33990;44.602;10.976;2024-01-11T06:55:55;102077.56;;;18.19;41.17
48200;BME280;33990;44.602;10.976;2024-01-11T06:58:23;102085.63;;;18.19;41.17
48200;BME280;33990;44.602;10.976;2024-01-11T07:00:50;102074.97;;;18.18;41.13
48200;BME280;33990;44.602;10.976;2024-01-11T07:03:17;102074.13;;;18.17;41.21
48200;BME280;33990;44.602;10.976;2024-01-11T07:05:45;102074.97;;;18.18;41.16
48200;BME280;33990;44.602;10.976;2024-01-11T07:08:13;102075.06;;;18.16;41.38
48200;BME280;33990;44.602;10.976;2024-01-11T07:10:40;102084.84;;;18.17;41.29
48200;BME280;33990;44.602;10.976;2024-01-11T07:13:09;102083.88;;;18.18;41.24
48200;BME280;33990;44.602;10.976;2024-01-11T07:15:38;102080.34;;;18.18;41.37
48200;BME280;33990;44.602;10.976;2024-01-11T07:18:05;102076.78;;;18.17;41.26
48200;BME280;33990;44.602;10.976;2024-01-11T07:20:33;102072.28;;;18.18;41.29
48200;BME280;33990;44.602;10.976;2024-01-11T07:23:00;102071.53;;;18.16;41.35
48200;BME280;33990;44.602;10.976;2024-01-11T07:25:28;102073.25;;;18.17;41.22
48200;BME280;33990;44.602;10.976;2024-01-11T07:27:55;102069.63;;;18.18;41.46
48200;BME280;33990;44.602;10.976;2024-01-11T07:30:22;102067.78;;;18.18;41.44
48200;BME280;33990;44.602;10.976;2024-01-11T07:32:50;102067.78;;;18.18;41.36
48200;BME280;33990;44.602;10.976;2024-01-11T07:35:18;102066.06;;;18.17;41.41
48200;BME280;33990;44.602;10.976;2024-01-11T07:37:47;102068.00;;;18.15;41.40
48200;BME280;33990;44.602;10.976;2024-01-11T07:40:14;102070.69;;;18.15;41.33
48200;BME280;33990;44.602;10.976;2024-01-11T07:42:42;102064.44;;;18.15;41.34
48200;BME280;33990;44.602;10.976;2024-01-11T07:45:10;102065.31;;;18.15;41.28
48200;BME280;33990;44.602;10.976;2024-01-11T07:47:38;102066.25;;;18.14;41.37
48200;BME280;33990;44.602;10.976;2024-01-11T07:50:07;102063.56;;;18.14;41.29
48200;BME280;33990;44.602;10.976;2024-01-11T07:52:37;102066.38;;;18.13;41.41
48200;BME280;33990;44.602;10.976;2024-01-11T07:55:05;102074.41;;;18.13;41.44
48200;BME280;33990;44.602;10.976;2024-01-11T07:57:36;102076.13;;;18.14;41.43
48200;BME280;33990;44.602;10.976;2024-01-11T08:00:05;102072.69;;;18.12;41.38
48200;BME280;33990;44.602;10.976;2024-01-11T08:02:39;102083.41;;;18.12;41.41
48200;BME280;33990;44.602;10.976;2024-01-11T08:05:07;102080.91;;;18.09;41.38
48200;BME280;33990;44.602;10.976;2024-01-11T08:07:35;102087.13;;;18.09;41.47
48200;BME280;33990;44.602;10.976;2024-01-11T08:10:03;102095.94;;;18.11;41.53
48200;BME280;33990;44.602;10.976;2024-01-11T08:12:31;102089.63;;;18.12;41.70
48200;BME280;33990;44.602;10.976;2024-01-11T08:14:59;102096.81;;;18.12;41.71
48200;BME280;33990;44.602;10.976;2024-01-11T08:17:26;102095.06;;;18.11;40.48
48200;BME280;33990;44.602;10.976;2024-01-11T08:19:53;102089.97;;;18.06;39.11
48200;BME280;33990;44.602;10.976;2024-01-11T08:22:23;102091.97;;;18.02;37.97
48200;BME280;33990;44.602;10.976;2024-01-11T08:24:53;102094.00;;;17.99;37.12
48200;BME280;33990;44.602;10.976;2024-01-11T08:27:21;102089.88;;;17.93;36.54
48200;BME280;33990;44.602;10.976;2024-01-11T08:29:48;102091.84;;;17.90;36.10
48200;BME280;33990;44.602;10.976;2024-01-11T08:32:16;102091.19;;;17.86;35.83
48200;BME280;33990;44.602;10.976;2024-01-11T08:34:57;102087.84;;;17.83;35.47
48200;BME280;33990;44.602;10.976;2024-01-11T08:37:25;102087.22;;;17.77;35.62
48200;BME280;33990;44.602;10.976;2024-01-11T08:39:52;102083.69;;;17.77;35.70
48200;BME280;33990;44.602;10.976;2024-01-11T08:42:20;102083.69;;;17.77;35.56
48200;BME280;33990;44.602;10.976;2024-01-11T08:44:47;102081.88;;;17.77;35.58
48200;BME280;33990;44.602;10.976;2024-01-11T08:47:15;102082.72;;;17.78;35.50
48200;BME280;33990;44.602;10.976;2024-01-11T08:49:42;102084.47;;;17.79;35.39
48200;BME280;33990;44.602;10.976;2024-01-11T08:52:10;102083.63;;;17.78;35.40
48200;BME280;33990;44.602;10.976;2024-01-11T08:54:37;102073.78;;;17.79;35.46
48200;BME280;33990;44.602;10.976;2024-01-11T08:57:04;102071.00;;;17.81;35.49
48200;BME280;33990;44.602;10.976;2024-01-11T08:59:32;102074.44;;;17.83;35.73
48200;BME280;33990;44.602;10.976;2024-01-11T09:02:00;102081.53;;;17.84;35.53
48200;BME280;33990;44.602;10.976;2024-01-11T09:04:41;102081.41;;;17.85;35.67
48200;BME280;33990;44.602;10.976;2024-01-11T09:07:08;102073.38;;;17.85;35.53
48200;BME280;33990;44.602;10.976;2024-01-11T09:09:36;102077.88;;;17.85;35.56
48200;BME280;33990;44.602;10.976;2024-01-11T09:12:16;102076.91;;;17.86;35.43
48200;BME280;33990;44.602;10.976;2024-01-11T09:14:44;102080.56;;;17.85;35.40
48200;BME280;33990;44.602;10.976;2024-01-11T09:17:11;102077.03;;;17.84;35.34
48200;BME280;33990;44.602;10.976;2024-01-11T09:19:39;102081.53;;;17.84;35.19
48200;BME280;33990;44.602;10.976;2024-01-11T09:22:07;102082.38;;;17.84;34.99
48200;BME280;33990;44.602;10.976;2024-01-11T09:24:38;102078.06;;;17.82;35.00
48200;BME280;33990;44.602;10.976;2024-01-11T09:27:06;102080.66;;;17.83;34.86
48200;BME280;33990;44.602;10.976;2024-01-11T09:29:34;102084.22;;;17.84;34.93
48200;BME280;33990;44.602;10.976;2024-01-11T09:32:01;102081.41;;;17.85;35.03
48200;BME280;33990;44.602;10.976;2024-01-11T09:34:28;102082.22;;;17.87;35.55
48200;BME280;33990;44.602;10.976;2024-01-11T09:36:56;102085.63;;;17.89;36.06
48200;BME280;33990;44.602;10.976;2024-01-11T09:39:26;102081.94;;;17.92;36.17
48200;BME280;33990;44.602;10.976;2024-01-11T09:42:08;102075.59;;;17.93;36.50
48200;BME280;33990;44.602;10.976;2024-01-11T09:44:40;102070.16;;;17.94;36.60
48200;BME280;33990;44.602;10.976;2024-01-11T09:47:10;102072.75;;;17.96;36.67
48200;BME280;33990;44.602;10.976;2024-01-11T09:49:44;102073.50;;;17.98;36.79
48200;BME280;33990;44.602;10.976;2024-01-11T09:52:12;102075.25;;;17.99;36.59
48200;BME280;33990;44.602;10.976;2024-01-11T09:54:42;102075.25;;;17.99;36.97
48200;BME280;33990;44.602;10.976;2024-01-11T09:57:09;102076.09;;;17.99;36.98
48200;BME280;33990;44.602;10.976;2024-01-11T09:59:37;102071.63;;;18.00;37.07
48200;BME280;33990;44.602;10.976;2024-01-11T10:02:08;102060.88;;;18.00;37.14
48200;BME280;33990;44.602;10.976;2024-01-11T10:04:37;102062.59;;;18.01;37.28
48200;BME280;33990;44.602;10.976;2024-01-11T10:07:05;102058.97;;;18.02;37.23
48200;BME280;33990;44.602;10.976;2024-01-11T10:09:33;102042.88;;;18.02;37.28
48200;BME280;33990;44.602;10.976;2024-01-11T10:12:01;102034.84;;;18.02;37.35
48200;BME280;33990;44.602;10.976;2024-01-11T10:14:28;102031.25;;;18.03;37.41
48200;BME280;33990;44.602;10.976;2024-01-11T10:16:55;102033.91;;;18.03;37.47
48200;BME280;33990;44.602;10.976;2024-01-11T10:19:23;102022.13;;;18.06;37.51
48200;BME280;33990;44.602;10.976;2024-01-11T10:21:51;102014.09;;;18.06;37.74
48200;BME280;33990;44.602;10.976;2024-01-11T10:24:19;102016.78;;;18.06;37.72
48200;BME280;33990;44.602;10.976;2024-01-11T10:26:47;102013.22;;;18.05;37.73
48200;BME280;33990;44.602;10.976;2024-01-11T10:29:15;102002.41;;;18.07;38.20
48200;BME280;33990;44.602;10.976;2024-01-11T10:31:42;101999.66;;;18.08;38.33
48200;BME280;33990;44.602;10.976;2024-01-11T10:34:10;101994.28;;;18.08;38.36
48200;BME280;33990;44.602;10.976;2024-01-11T10:36:37;101995.16;;;18.09;38.46
48200;BME280;33990;44.602;10.976;2024-01-11T10:39:05;101996.00;;;18.09;38.53
48200;BME280;33990;44.602;10.976;2024-01-11T10:41:40;101990.66;;;18.09;38.73
48200;BME280;33990;44.602;10.976;2024-01-11T10:44:21;101979.06;;;18.09;38.66
48200;BME280;33990;44.602;10.976;2024-01-11T10:46:55;101972.75;;;18.10;38.77
48200;BME280;33990;44.602;10.976;2024-01-11T10:49:25;101979.06;;;18.09;38.64
48200;BME280;33990;44.602;10.976;2024-01-11T10:52:04;101972.75;;;18.10;38.80
48200;BME280;33990;44.602;10.976;2024-01-11T10:54:36;101972.75;;;18.10;38.69
48200;BME280;33990;44.602;10.976;2024-01-11T10:57:04;101970.06;;;18.10;38.75
48200;BME280;33990;44.602;10.976;2024-01-11T10:59:36;101967.38;;;18.10;38.89
48200;BME280;33990;44.602;10.976;2024-01-11T11:02:06;101963.84;;;18.09;38.89
48200;BME280;33990;44.602;10.976;2024-01-11T11:04:35;101965.56;;;18.10;38.85
48200;BME280;33990;44.602;10.976;2024-01-11T11:07:05;101963.84;;;18.09;38.97
48200;BME280;33990;44.602;10.976;2024-01-11T11:09:37;101956.66;;;18.10;38.99
48200;BME280;33990;44.602;10.976;2024-01-11T11:12:07;101960.19;;;18.10;38.84
48200;BME280;33990;44.602;10.976;2024-01-11T11:14:36;101950.44;;;18.09;38.89
48200;BME280;33990;44.602;10.976;2024-01-11T11:17:05;101952.28;;;18.09;39.00
48200;BME280;33990;44.602;10.976;2024-01-11T11:19:33;101947.78;;;18.09;39.03
48200;BME280;33990;44.602;10.976;2024-01-11T11:22:03;101940.59;;;18.10;39.02
48200;BME280;33990;44.602;10.976;2024-01-11T11:24:34;101937.06;;;18.09;38.99
48200;BME280;33990;44.602;10.976;2024-01-11T11:27:02;101927.28;;;18.08;38.88
48200;BME280;33990;44.602;10.976;2024-01-11T11:29:30;101931.69;;;18.09;39.03
48200;BME280;33990;44.602;10.976;2024-01-11T11:31:58;101930.72;;;18.10;38.93
48200;BME280;33990;44.602;10.976;2024-01-11T11:34:46;101913.91;;;18.08;38.86
48200;BME280;33990;44.602;10.976;2024-01-11T11:37:22;101911.03;;;17.97;36.48
48200;BME280;33990;44.602;10.976;2024-01-11T11:39:50;101913.91;;;17.94;36.33
48200;BME280;33990;44.602;10.976;2024-01-11T11:42:18;101910.47;;;17.92;37.08
48200;BME280;33990;44.602;10.976;2024-01-11T11:44:49;101907.69;;;17.93;37.64
48200;BME280;33990;44.602;10.976;2024-01-11T11:47:19;101896.88;;;17.95;38.25
48200;BME280;33990;44.602;10.976;2024-01-11T11:50:13;101890.63;;;17.94;38.39
48200;BME280;33990;44.602;10.976;2024-01-11T11:52:41;101887.88;;;17.96;38.43
48200;BME280;33990;44.602;10.976;2024-01-11T11:55:11;101883.38;;;17.96;38.35
48200;BME280;33990;44.602;10.976;2024-01-11T11:57:42;101876.19;;;17.97;38.48
48200;BME280;33990;44.602;10.976;2024-01-11T12:00:10;101871.69;;;17.97;38.60
48200;BME280;33990;44.602;10.976;2024-01-11T12:02:39;101873.41;;;17.98;38.51
48200;BME280;33990;44.602;10.976;2024-01-11T12:05:07;101872.47;;;17.99;38.58
48200;BME280;33990;44.602;10.976;2024-01-11T12:07:34;101878.69;;;18.00;38.64
48200;BME280;33990;44.602;10.976;2024-01-11T12:10:02;101867.97;;;18.00;38.67
48200;BME280;33990;44.602;10.976;2024-01-11T12:12:30;101860.78;;;18.00;38.57
48200;BME280;33990;44.602;10.976;2024-01-11T12:14:57;101853.63;;;18.01;38.58
48200;BME280;33990;44.602;10.976;2024-01-11T12:17:26;101846.44;;;18.01;38.66
48200;BME280;33990;44.602;10.976;2024-01-11T12:19:54;101843.75;;;18.01;38.69
48200;BME280;33990;44.602;10.976;2024-01-11T12:22:24;101844.59;;;18.02;38.57
48200;BME280;33990;44.602;10.976;2024-01-11T12:24:52;101844.59;;;18.02;38.72
48200;BME280;33990;44.602;10.976;2024-01-11T12:27:19;101839.25;;;18.02;38.66
48200;BME280;33990;44.602;10.976;2024-01-11T12:29:47;101838.38;;;18.01;38.73
48200;BME280;33990;44.602;10.976;2024-01-11T12:32:25;101827.69;;;18.01;38.69
48200;BME280;33990;44.602;10.976;2024-01-11T12:34:53;101827.69;;;18.01;38.80
48200;BME280;33990;44.602;10.976;2024-01-11T12:37:21;101823.16;;;18.02;38.74
48200;BME280;33990;44.602;10.976;2024-01-11T12:39:48;101823.16;;;18.02;38.68
48200;BME280;33990;44.602;10.976;2024-01-11T12:42:16;101820.59;;;18.00;38.20
48200;BME280;33990;44.602;10.976;2024-01-11T12:44:43;101819.94;;;17.97;37.10
48200;BME280;33990;44.602;10.976;2024-01-11T12:47:13;101807.88;;;17.90;34.65